Time;durP1;ratioP1;P1;durP2;ratioP2;P2;SDS_P1;SDS_P2;PMS_P1;PMS_P2;Temp;Humidity;BMP_temperature;BMP_pressure;BME280_temperature;BME280_humidity;BME280_pressure;Samples;Min_cycle;Max_cycle;Signal;HPM_P1;HPM_P2
2022/06/18 00:00:42;;;;;;;41.22;37.70;;;29.60;44.40;;;;;;4991977;28;20525;-77
2022/06/18 00:03:09;;;;;;;42.45;39.28;;;29.60;44.20;;;;;;4991219;28;20046;-77
2022/06/18 00:05:36;;;;;;;42.08;39.00;;;29.50;44.20;;;;;;4992762;28;20033;-77
2022/06/18 00:08:02;;;;;;;42.65;39.50;;;29.50;44.20;;;;;;4992117;28;20034;-77
2022/06/18 00:10:29;;;;;;;39.72;36.85;;;29.40;44.10;;;;;;4992778;28;20038;-77
2022/06/18 00:15:41;;;;;;;39.55;36.95;;;29.40;44.60;;;;;;4990807;28;20049;-77
2022/06/18 00:18:12;;;;;;;41.10;38.35;;;29.30;45.10;;;;;;4973564;28;20031;-77
2022/06/18 00:20:38;;;;;;;39.45;36.28;;;29.20;45.40;;;;;;4974909;28;20047;-77
2022/06/18 00:23:12;;;;;;;37.40;34.60;;;29.20;45.60;;;;;;4991322;28;20030;-77
2022/06/18 00:25:41;;;;;;;36.00;33.20;;;29.10;45.60;;;;;;4976750;28;20038;-77
2022/06/18 00:28:28;;;;;;;37.92;35.17;;;29.10;45.60;;;;;;4972913;28;20043;-77
2022/06/18 00:30:54;;;;;;;38.35;35.20;;;29.00;45.70;;;;;;4988696;28;20049;-77
2022/06/18 00:33:20;;;;;;;38.50;35.90;;;29.10;45.70;;;;;;4989397;28;20026;-77
2022/06/18 00:35:47;;;;;;;37.10;34.38;;;29.00;45.60;;;;;;4989523;28;20390;-77
2022/06/18 00:38:19;;;;;;;39.25;36.33;;;29.00;45.50;;;;;;4991109;28;20038;-77
2022/06/18 00:40:45;;;;;;;36.35;33.55;;;29.00;45.90;;;;;;4973059;28;20514;-77
2022/06/18 00:43:28;;;;;;;37.40;34.35;;;28.90;46.00;;;;;;5006330;28;20030;-77
2022/06/18 00:46:15;;;;;;;40.55;36.72;;;28.90;45.80;;;;;;4988425;28;20406;-77
2022/06/18 00:49:11;;;;;;;37.70;35.10;;;28.90;46.00;;;;;;4991870;28;20037;-77
2022/06/18 00:51:43;;;;;;;37.45;34.67;;;28.80;45.70;;;;;;4990251;28;20110;-77
2022/06/18 00:54:30;;;;;;;36.38;33.38;;;28.70;45.80;;;;;;4988979;28;20026;-77
2022/06/18 00:57:13;;;;;;;35.95;33.38;;;28.60;45.80;;;;;;4990430;28;20037;-77
2022/06/18 01:00:04;;;;;;;36.50;33.85;;;28.60;45.60;;;;;;4988517;28;20073;-77
2022/06/18 01:02:39;;;;;;;37.30;34.33;;;28.60;45.50;;;;;;4991548;28;20043;-77
2022/06/18 01:05:23;;;;;;;35.55;32.80;;;28.50;46.20;;;;;;4990987;28;20045;-77
2022/06/18 01:07:54;;;;;;;35.03;32.38;;;28.50;45.40;;;;;;4992804;28;20026;-77
2022/06/18 01:10:30;;;;;;;34.97;32.53;;;28.30;45.90;;;;;;4992884;28;20046;-77
2022/06/18 01:12:57;;;;;;;35.42;32.30;;;28.30;46.20;;;;;;4988402;28;20491;-77
2022/06/18 01:15:23;;;;;;;33.97;31.35;;;28.30;46.20;;;;;;4988023;28;20037;-77
2022/06/18 01:17:51;;;;;;;34.33;31.85;;;28.00;46.80;;;;;;4988842;28;20022;-77
2022/06/18 01:20:18;;;;;;;32.85;30.30;;;27.90;47.40;;;;;;4973012;28;20034;-77
2022/06/18 01:23:06;;;;;;;33.65;31.25;;;27.60;48.40;;;;;;4991903;28;20034;-77
2022/06/18 01:25:32;;;;;;;32.35;29.45;;;27.40;48.90;;;;;;4990143;28;20034;-77
2022/06/18 01:27:58;;;;;;;31.30;28.80;;;27.30;48.90;;;;;;4988247;28;20407;-77
2022/06/18 01:30:25;;;;;;;31.50;29.15;;;27.20;49.00;;;;;;4987755;28;20043;-77
2022/06/18 01:32:52;;;;;;;29.88;27.40;;;27.10;48.80;;;;;;4974362;28;20042;-77
2022/06/18 01:35:19;;;;;;;28.85;26.55;;;27.10;48.60;;;;;;4973537;28;20046;-77
2022/06/18 01:37:46;;;;;;;29.50;26.42;;;27.10;48.40;;;;;;4991683;28;20027;-77
2022/06/18 01:40:15;;;;;;;31.00;28.63;;;26.90;48.80;;;;;;4988259;28;20034;-77
2022/06/18 01:42:43;;;;;;;31.85;29.65;;;26.90;48.90;;;;;;4988045;28;20033;-77
2022/06/18 01:45:12;;;;;;;31.55;29.25;;;27.00;48.90;;;;;;4987715;28;20026;-76
2022/06/18 01:48:04;;;;;;;32.15;29.70;;;27.20;48.70;;;;;;4988511;28;20030;-77
2022/06/18 01:50:44;;;;;;;30.85;28.65;;;27.30;48.20;;;;;;4975869;28;20046;-77
2022/06/18 01:53:16;;;;;;;30.90;28.35;;;27.30;48.40;;;;;;4990371;28;20045;-77
2022/06/18 01:55:45;;;;;;;30.90;28.60;;;27.20;48.90;;;;;;4991326;28;20038;-76
2022/06/18 01:58:17;;;;;;;29.70;27.60;;;27.10;49.10;;;;;;4971323;28;20411;-77
2022/06/18 02:00:44;;;;;;;32.45;29.65;;;27.20;48.80;;;;;;4982587;28;20483;-77
2022/06/18 02:03:10;;;;;;;31.10;28.15;;;27.30;48.70;;;;;;4990776;28;20493;-77
2022/06/18 02:05:37;;;;;;;30.00;27.88;;;27.30;48.70;;;;;;4987929;28;20037;-77
2022/06/18 02:08:04;;;;;;;29.92;27.63;;;27.30;48.70;;;;;;4989980;28;20026;-76
2022/06/18 02:10:50;;;;;;;29.13;26.75;;;27.10;48.90;;;;;;4985615;28;20037;-77
2022/06/18 02:13:16;;;;;;;30.20;27.95;;;27.10;49.00;;;;;;5002079;28;20046;-77
2022/06/18 02:15:44;;;;;;;29.67;27.48;;;27.00;49.30;;;;;;5000691;28;20035;-77
2022/06/18 02:18:12;;;;;;;29.48;27.58;;;27.10;49.30;;;;;;4987612;28;20030;-77
2022/06/18 02:20:53;;;;;;;28.20;26.20;;;26.90;49.50;;;;;;4987445;28;20031;-77
2022/06/18 02:23:21;;;;;;;30.63;28.63;;;26.70;50.20;;;;;;4973099;28;20120;-77
2022/06/18 02:25:47;;;;;;;32.70;30.35;;;26.40;50.90;;;;;;4990864;28;20037;-76
2022/06/18 02:28:26;;;;;;;35.10;31.90;;;26.40;50.90;;;;;;4987492;28;20045;-76
2022/06/18 02:30:55;;;;;;;33.22;30.88;;;26.40;51.40;;;;;;4986920;28;20050;-76
2022/06/18 02:33:32;;;;;;;34.28;31.75;;;26.40;51.00;;;;;;4989930;28;20033;-77
2022/06/18 02:36:10;;;;;;;33.33;30.95;;;26.60;50.70;;;;;;4987366;28;20033;-76
2022/06/18 02:38:36;;;;;;;32.38;29.83;;;26.60;50.90;;;;;;4987331;28;20023;-76
2022/06/18 02:41:02;;;;;;;29.83;27.83;;;26.50;51.70;;;;;;4989073;28;20038;-77
2022/06/18 02:43:28;;;;;;;30.15;27.65;;;26.30;52.30;;;;;;4970908;28;20035;-77
2022/06/18 02:45:55;;;;;;;29.83;27.70;;;26.40;52.00;;;;;;4967174;28;20509;-77
2022/06/18 02:48:24;;;;;;;30.15;27.73;;;26.40;51.50;;;;;;4986923;28;20026;-77
2022/06/18 02:50:50;;;;;;;29.73;27.52;;;26.50;51.30;;;;;;4986911;28;20478;-77
2022/06/18 02:53:16;;;;;;;30.42;27.80;;;26.50;51.10;;;;;;4988852;28;20034;-77
2022/06/18 02:55:47;;;;;;;28.27;26.25;;;26.60;50.90;;;;;;4990162;28;20034;-77
2022/06/18 02:58:18;;;;;;;;;;;26.60;50.90;;;;;;4974235;28;20038;-77
2022/06/18 03:01:08;;;;;;;28.38;25.98;;;26.60;51.10;;;;;;4974222;28;19914;-77
2022/06/18 03:03:36;;;;;;;27.73;25.73;;;26.50;51.00;;;;;;4984022;28;20038;-77
2022/06/18 03:06:02;;;;;;;29.98;27.83;;;26.50;50.90;;;;;;4987666;28;20033;-77
2022/06/18 03:08:29;;;;;;;28.90;26.60;;;26.40;51.60;;;;;;4989545;28;20479;-77
2022/06/18 03:13:40;;;;;;;30.45;28.05;;;26.30;51.60;;;;;;5009087;28;20060;-77
2022/06/18 03:16:08;;;;;;;30.17;27.83;;;26.30;51.50;;;;;;4989464;28;20038;-76
2022/06/18 03:18:34;;;;;;;29.10;26.60;;;26.40;51.50;;;;;;4989997;28;20458;-77
2022/06/18 03:21:27;;;;;;;29.67;26.92;;;26.40;51.40;;;;;;4985634;28;20463;-77
2022/06/18 03:23:53;;;;;;;28.50;25.95;;;26.40;51.20;;;;;;4975529;28;20045;-76
2022/06/18 03:26:19;;;;;;;27.25;25.35;;;26.40;51.40;;;;;;4990379;28;20030;-77
2022/06/18 03:28:45;;;;;;;28.83;26.08;;;26.40;51.80;;;;;;5011025;28;20041;-75
2022/06/18 03:31:12;;;;;;;28.90;25.63;;;26.40;51.70;;;;;;4975383;28;20398;-76
2022/06/18 03:33:38;;;;;;;27.17;25.17;;;26.40;52.10;;;;;;4975846;28;20049;-77
2022/06/18 03:36:05;;;;;;;28.30;25.67;;;26.40;53.20;;;;;;4976388;28;20065;-77
2022/06/18 03:38:31;;;;;;;29.10;26.70;;;26.30;52.70;;;;;;4989657;28;20035;-76
2022/06/18 03:40:57;;;;;;;28.80;26.52;;;26.30;52.30;;;;;;5008924;28;20041;-77
2022/06/18 03:43:24;;;;;;;29.02;26.27;;;26.30;52.40;;;;;;5008868;28;20041;-77
2022/06/18 03:45:57;;;;;;;27.83;25.55;;;26.30;52.70;;;;;;4987522;28;20042;-77
2022/06/18 03:48:48;;;;;;;26.42;24.27;;;26.10;53.60;;;;;;4990072;28;20026;-77
2022/06/18 03:51:15;;;;;;;27.33;24.52;;;25.90;54.50;;;;;;4992464;28;20041;-77
2022/06/18 03:53:41;;;;;;;36.15;33.45;;;25.50;55.70;;;;;;4975068;28;20390;-76
2022/06/18 03:56:09;;;;;;;41.88;38.88;;;25.20;56.20;;;;;;5009230;28;20041;-76
2022/06/18 03:58:35;;;;;;;30.45;27.88;;;25.20;55.60;;;;;;4993252;28;20399;-77
2022/06/18 04:01:01;;;;;;;31.85;29.30;;;25.40;55.10;;;;;;5007338;28;20038;-77
2022/06/18 04:03:28;;;;;;;31.60;29.33;;;25.50;55.10;;;;;;4993181;28;20034;-77
2022/06/18 04:05:54;;;;;;;26.60;24.25;;;25.60;54.90;;;;;;5010607;28;20033;-77
2022/06/18 04:08:20;;;;;;;24.83;23.05;;;25.60;55.00;;;;;;5012416;28;20049;-77
2022/06/18 04:10:47;;;;;;;23.77;21.98;;;25.60;54.80;;;;;;4979951;28;20053;-77
2022/06/18 04:13:13;;;;;;;25.65;23.50;;;25.60;54.90;;;;;;4995152;28;20042;-77
2022/06/18 04:15:41;;;;;;;26.17;24.48;;;25.60;54.90;;;;;;4995859;28;20046;-77
2022/06/18 04:18:07;;;;;;;27.88;25.30;;;25.60;54.60;;;;;;5012055;28;20026;-77
2022/06/18 04:20:35;;;;;;;22.45;20.42;;;25.60;54.60;;;;;;4975822;28;20038;-76
2022/06/18 04:23:01;;;;;;;21.70;19.73;;;25.50;55.40;;;;;;5011773;28;20030;-76
2022/06/18 04:25:27;;;;;;;24.92;22.85;;;25.10;56.50;;;;;;4993990;28;20026;-76
2022/06/18 04:27:57;;;;;;;22.65;20.48;;;24.80;57.30;;;;;;4993004;28;20105;-76
2022/06/18 04:30:26;;;;;;;24.70;22.70;;;24.70;57.30;;;;;;4992849;28;20038;-77
2022/06/18 04:32:53;;;;;;;21.67;19.80;;;24.70;57.10;;;;;;4992935;28;20022;-77
2022/06/18 04:35:19;;;;;;;22.08;19.95;;;24.70;57.00;;;;;;4992684;28;20026;-77
2022/06/18 04:37:45;;;;;;;20.10;18.27;;;24.60;57.30;;;;;;5008142;28;20038;-77
2022/06/18 04:40:13;;;;;;;22.02;19.52;;;24.60;57.00;;;;;;4991828;28;20042;-76
2022/06/18 04:42:39;;;;;;;22.42;20.13;;;24.80;56.60;;;;;;5004093;28;20048;-76
2022/06/18 04:45:06;;;;;;;22.48;20.25;;;24.90;56.10;;;;;;5009585;28;20474;-77
2022/06/18 04:47:32;;;;;;;22.13;20.02;;;25.10;55.80;;;;;;4992505;28;20046;-76
2022/06/18 04:49:58;;;;;;;21.83;19.95;;;25.20;55.60;;;;;;5010906;28;20502;-77
2022/06/18 04:52:25;;;;;;;23.55;20.90;;;25.30;55.40;;;;;;5011487;28;20067;-77
2022/06/18 04:54:52;;;;;;;22.90;20.90;;;25.40;55.20;;;;;;4992449;28;20387;-77
2022/06/18 04:57:20;;;;;;;23.55;21.30;;;25.50;55.40;;;;;;4992643;28;20463;-77
2022/06/18 04:59:46;;;;;;;23.25;21.33;;;25.40;54.60;;;;;;4992575;28;20463;-77
2022/06/18 05:02:26;;;;;;;22.33;20.50;;;25.40;54.70;;;;;;5009234;28;20050;-77
2022/06/18 05:04:53;;;;;;;22.52;20.80;;;25.20;55.20;;;;;;5009090;28;20045;-77
2022/06/18 05:07:19;;;;;;;22.08;19.88;;;24.90;55.90;;;;;;5011208;28;20061;-76
2022/06/18 05:09:45;;;;;;;21.70;20.05;;;24.80;55.90;;;;;;5010403;28;20034;-76
2022/06/18 05:12:12;;;;;;;22.95;21.02;;;24.90;56.00;;;;;;4993511;28;20049;-77
2022/06/18 05:14:39;;;;;;;24.30;22.13;;;25.10;55.60;;;;;;4994327;28;20033;-76
2022/06/18 05:17:06;;;;;;;24.77;22.55;;;25.30;55.30;;;;;;5009670;28;20037;-77
2022/06/18 05:19:33;;;;;;;28.05;25.38;;;25.60;55.40;;;;;;4995074;28;20049;-76
2022/06/18 05:21:59;;;;;;;27.55;25.10;;;25.70;54.10;;;;;;4978485;28;20382;-77
2022/06/18 05:24:26;;;;;;;27.13;25.27;;;25.60;54.20;;;;;;4989339;28;20038;-76
2022/06/18 05:26:53;;;;;;;28.75;26.00;;;25.50;54.40;;;;;;5011451;28;20505;-76
2022/06/18 05:29:19;;;;;;;29.52;27.35;;;25.50;54.40;;;;;;4994811;28;20387;-76
2022/06/18 05:31:45;;;;;;;30.30;28.02;;;25.60;54.10;;;;;;5013095;28;20045;-77
2022/06/18 05:34:12;;;;;;;30.15;28.10;;;25.60;54.20;;;;;;4991640;28;20395;-77
2022/06/18 05:36:38;;;;;;;28.08;25.42;;;25.50;54.20;;;;;;4977956;28;20053;-77
2022/06/18 05:39:04;;;;;;;32.35;29.92;;;25.50;54.60;;;;;;4994210;28;20045;-76
2022/06/18 05:41:30;;;;;;;31.75;29.45;;;25.60;54.10;;;;;;4993798;28;20482;-76
2022/06/18 05:43:57;;;;;;;32.15;29.77;;;25.60;53.90;;;;;;4994436;28;20039;-76
2022/06/18 05:46:23;;;;;;;28.83;26.65;;;25.70;53.60;;;;;;5009688;28;20041;-77
2022/06/18 05:48:49;;;;;;;30.40;28.05;;;25.60;53.10;;;;;;4991061;28;20038;-77
2022/06/18 05:51:15;;;;;;;27.88;26.00;;;25.60;53.00;;;;;;4991086;28;20037;-77
2022/06/18 05:53:41;;;;;;;30.67;28.42;;;25.70;52.90;;;;;;4991371;28;20064;-77
2022/06/18 05:56:11;;;;;;;31.25;29.05;;;25.70;53.20;;;;;;5010560;28;20462;-77
2022/06/18 05:58:37;;;;;;;31.08;28.88;;;25.70;52.40;;;;;;5011093;28;20044;-77
2022/06/18 06:01:03;;;;;;;32.17;30.17;;;25.70;52.60;;;;;;4976645;28;20053;-77
2022/06/18 06:03:30;;;;;;;32.95;30.40;;;25.60;52.60;;;;;;4990608;28;20046;-77
2022/06/18 06:05:56;;;;;;;32.30;29.85;;;25.50;52.90;;;;;;4990974;28;20481;-76
2022/06/18 06:08:22;;;;;;;33.28;31.08;;;25.60;52.60;;;;;;4991303;28;20038;-76
2022/06/18 06:13:32;;;;;;;25.83;23.60;;;25.90;52.40;;;;;;5011848;28;20065;-77
2022/06/18 06:15:59;;;;;;;28.00;26.08;;;26.10;51.20;;;;;;4990388;28;20041;-76
2022/06/18 06:18:27;;;;;;;26.98;24.67;;;26.10;51.30;;;;;;5009657;28;20042;-76
2022/06/18 06:20:54;;;;;;;29.23;26.80;;;26.30;51.20;;;;;;4992360;28;20026;-77
2022/06/18 06:23:20;;;;;;;25.30;23.48;;;26.30;50.90;;;;;;4977048;28;20042;-77
2022/06/18 06:25:47;;;;;;;25.88;24.02;;;26.30;50.40;;;;;;5010950;28;20029;-77
2022/06/18 06:28:16;;;;;;;26.58;24.73;;;26.30;50.30;;;;;;5008774;28;20037;-77
2022/06/18 06:30:42;;;;;;;26.60;24.75;;;26.30;50.40;;;;;;4971080;28;20034;-77
2022/06/18 06:33:08;;;;;;;28.27;26.45;;;26.40;50.30;;;;;;4983253;28;20043;-77
2022/06/18 06:35:34;;;;;;;29.42;27.15;;;26.40;50.30;;;;;;5010207;28;20044;-77
2022/06/18 06:38:02;;;;;;;29.60;27.38;;;26.50;50.20;;;;;;4992799;28;20380;-77
2022/06/18 06:40:29;;;;;;;29.73;27.02;;;26.60;49.70;;;;;;5010272;28;20049;-77
2022/06/18 06:42:58;;;;;;;29.08;27.15;;;26.70;50.00;;;;;;4990662;28;20510;-77
2022/06/18 06:45:26;;;;;;;29.80;28.00;;;26.90;50.20;;;;;;4990405;28;20410;-77
2022/06/18 06:47:52;;;;;;;30.08;27.80;;;27.00;50.10;;;;;;4990309;28;20032;-78
2022/06/18 06:50:19;;;;;;;33.65;31.30;;;27.00;49.60;;;;;;4992960;28;20479;-77
2022/06/18 06:52:45;;;;;;;32.42;30.13;;;27.10;49.50;;;;;;5010076;28;20068;-76
2022/06/18 06:58:05;;;;;;;28.83;27.13;;;27.10;49.60;;;;;;4993911;28;20049;-77
2022/06/18 07:00:36;;;;;;;29.70;27.50;;;27.00;50.10;;;;;;4989570;28;20045;-77
2022/06/18 07:03:02;;;;;;;30.98;29.08;;;27.20;50.10;;;;;;4990269;28;20026;-77
2022/06/18 07:05:28;;;;;;;33.35;31.05;;;27.20;49.40;;;;;;5009223;28;20026;-77
2022/06/18 07:07:54;;;;;;;34.25;32.15;;;27.20;49.60;;;;;;5009296;28;20041;-77
2022/06/18 07:10:20;;;;;;;35.88;33.45;;;27.50;49.40;;;;;;5008617;28;20034;-77
2022/06/18 07:12:46;;;;;;;35.28;32.95;;;27.70;48.70;;;;;;4989962;28;20060;-77
2022/06/18 07:15:13;;;;;;;37.78;35.42;;;27.90;47.90;;;;;;4989244;28;20347;-77
2022/06/18 07:17:40;;;;;;;39.58;36.90;;;28.00;48.30;;;;;;4976272;28;20038;-77
2022/06/18 07:20:09;;;;;;;35.90;33.50;;;28.30;47.90;;;;;;5008251;28;20455;-77
2022/06/18 07:22:35;;;;;;;35.70;33.33;;;28.50;47.30;;;;;;5008255;28;20041;-77
2022/06/18 07:25:01;;;;;;;37.40;34.88;;;28.40;46.90;;;;;;4990263;28;20030;-77
2022/06/18 07:27:30;;;;;;;38.13;35.67;;;28.40;47.20;;;;;;4988429;28;20038;-77
2022/06/18 07:29:57;;;;;;;54.50;51.35;;;28.60;47.60;;;;;;4989851;28;20477;-76
2022/06/18 07:32:23;;;;;;;38.63;36.17;;;28.70;47.20;;;;;;4991868;28;20038;-77
2022/06/18 07:34:49;;;;;;;38.30;36.00;;;28.70;47.20;;;;;;5013745;28;20026;-77
2022/06/18 07:37:15;;;;;;;40.63;38.03;;;28.70;46.70;;;;;;4993971;28;20045;-77
2022/06/18 07:39:41;;;;;;;37.38;35.08;;;28.70;46.60;;;;;;4993751;28;20394;-77
2022/06/18 07:42:07;;;;;;;37.30;34.63;;;28.80;46.30;;;;;;5013140;28;20037;-77
2022/06/18 07:44:33;;;;;;;39.47;36.53;;;28.70;46.20;;;;;;4993484;28;20026;-77
2022/06/18 07:47:02;;;;;;;39.22;36.90;;;28.80;46.70;;;;;;5012225;28;20037;-77
2022/06/18 07:49:29;;;;;;;38.83;36.22;;;29.10;46.80;;;;;;5014258;28;20036;-77
2022/06/18 07:51:55;;;;;;;40.53;37.97;;;29.10;45.70;;;;;;4993648;28;20045;-77
2022/06/18 07:54:21;;;;;;;44.10;41.55;;;29.20;45.70;;;;;;4993442;28;20475;-77
2022/06/18 07:56:48;;;;;;;41.67;39.00;;;29.30;45.40;;;;;;4995544;28;20030;-77
2022/06/18 07:59:15;;;;;;;42.85;40.30;;;29.40;45.20;;;;;;5010489;28;20031;-77
2022/06/18 08:01:41;;;;;;;41.30;38.42;;;29.50;45.10;;;;;;4992870;28;20394;-77
2022/06/18 08:04:07;;;;;;;41.45;38.97;;;29.60;45.30;;;;;;5011389;28;20029;-77
2022/06/18 08:06:33;;;;;;;43.80;41.03;;;29.80;44.40;;;;;;4993369;28;20038;-78
2022/06/18 08:08:59;;;;;;;41.58;39.08;;;29.90;44.70;;;;;;4995262;28;20037;-77
2022/06/18 08:11:28;;;;;;;43.60;40.75;;;30.10;43.90;;;;;;4993386;28;20038;-77
2022/06/18 08:13:54;;;;;;;44.20;41.33;;;30.20;43.60;;;;;;5011452;28;20060;-77
2022/06/18 08:16:21;;;;;;;41.35;38.83;;;30.40;43.70;;;;;;4993603;28;20030;-77
2022/06/18 08:18:47;;;;;;;43.63;40.97;;;30.40;43.00;;;;;;4993077;28;20037;-77
2022/06/18 08:21:21;;;;;;;42.70;40.17;;;30.50;43.20;;;;;;5012079;28;20391;-77
2022/06/18 08:23:47;;;;;;;46.05;43.10;;;30.60;43.30;;;;;;4993034;28;20018;-77
2022/06/18 08:26:13;;;;;;;45.40;42.90;;;30.70;43.10;;;;;;5010896;28;20034;-76
2022/06/18 08:28:40;;;;;;;51.25;48.15;;;30.80;43.30;;;;;;5013611;28;20025;-77
2022/06/18 08:31:06;;;;;;;44.83;42.17;;;30.90;42.70;;;;;;4992242;28;20042;-78
2022/06/18 08:33:33;;;;;;;45.47;42.92;;;30.90;42.70;;;;;;4992707;28;20034;-77
2022/06/18 08:36:00;;;;;;;44.65;42.15;;;31.10;43.00;;;;;;4978771;28;20046;-77
2022/06/18 08:38:26;;;;;;;46.80;44.17;;;31.10;42.60;;;;;;4993100;28;20034;-77
2022/06/18 08:41:11;;;;;;;49.35;46.65;;;31.20;42.20;;;;;;4995071;28;20045;-76
2022/06/18 08:43:37;;;;;;;56.95;53.83;;;31.40;42.00;;;;;;5010696;28;20485;-77
2022/06/18 08:46:38;;;;;;;54.78;51.92;;;31.60;42.50;;;;;;5011037;28;20038;-77
2022/06/18 08:49:10;;;;;;;55.22;52.25;;;31.70;41.80;;;;;;4926081;29;20043;-77
2022/06/18 08:52:15;;;;;;;50.30;46.78;;;31.70;41.30;;;;;;4959274;28;20043;-77
2022/06/18 08:55:07;;;;;;;53.22;50.22;;;31.70;41.80;;;;;;4963196;28;20043;-77
2022/06/18 08:57:43;;;;;;;51.53;48.63;;;31.90;41.00;;;;;;4964346;28;20031;-77
2022/06/18 09:00:22;;;;;;;1032.35;530.70;;;32.00;41.40;;;;;;4963837;28;20039;-77
2022/06/18 09:02:57;;;;;;;544.90;292.52;;;32.20;40.50;;;;;;4964912;28;20391;-77
2022/06/18 09:05:42;;;;;;;63.72;60.13;;;32.20;40.30;;;;;;4949158;28;20147;-76
2022/06/18 09:08:12;;;;;;;549.10;296.48;;;32.30;40.00;;;;;;4967989;28;20031;-77
2022/06/18 09:10:51;;;;;;;55.25;52.28;;;32.50;39.60;;;;;;4923330;29;20049;-77
2022/06/18 09:13:54;;;;;;;51.70;48.83;;;32.50;38.70;;;;;;4964747;28;20047;-77
2022/06/18 09:16:21;;;;;;;41.80;39.15;;;32.70;38.20;;;;;;4964778;28;20476;-77
2022/06/18 09:18:54;;;;;;;37.88;35.75;;;32.80;38.20;;;;;;4949961;28;20047;-78
2022/06/18 09:21:42;;;;;;;39.53;36.92;;;33.00;37.70;;;;;;4956586;28;20034;-77
2022/06/18 09:24:10;;;;;;;38.85;36.63;;;33.10;37.40;;;;;;4964135;28;20023;-77
2022/06/18 09:26:41;;;;;;;41.30;38.83;;;33.10;37.40;;;;;;4986622;28;20031;-78
2022/06/18 09:29:26;;;;;;;38.03;35.88;;;33.20;36.60;;;;;;5009762;28;20525;-77
2022/06/18 09:32:05;;;;;;;1999.90;999.90;;;33.50;37.00;;;;;;4987245;28;20042;-77
2022/06/18 09:34:44;;;;;;;1999.90;999.90;;;33.60;35.90;;;;;;4989712;28;20041;-77
2022/06/18 09:37:17;;;;;;;1999.90;999.90;;;33.70;34.50;;;;;;4961633;28;20046;-78
2022/06/18 09:39:46;;;;;;;1999.90;999.90;;;33.70;34.30;;;;;;4990480;28;20026;-77
2022/06/18 09:42:19;;;;;;;1999.90;999.90;;;33.80;33.70;;;;;;4986538;28;20034;-77
2022/06/18 09:44:55;;;;;;;1999.90;999.90;;;34.00;34.00;;;;;;4974412;28;20471;-77
2022/06/18 09:47:37;;;;;;;1999.90;999.90;;;34.10;33.40;;;;;;4975247;28;20041;-77
2022/06/18 09:50:13;;;;;;;1999.90;999.90;;;34.20;33.40;;;;;;4972595;28;20050;-77
2022/06/18 09:52:40;;;;;;;1999.90;999.90;;;34.30;32.30;;;;;;4957469;28;20050;-77
2022/06/18 09:55:12;;;;;;;1999.90;999.90;;;34.40;32.30;;;;;;4989683;28;20467;-78
2022/06/18 09:57:39;;;;;;;1999.90;999.90;;;34.60;32.00;;;;;;4983780;28;20034;-77
2022/06/18 10:00:07;;;;;;;1999.90;999.90;;;34.50;30.50;;;;;;4973744;28;20053;-77
2022/06/18 10:02:34;;;;;;;1999.90;999.90;;;34.60;30.30;;;;;;4992329;28;20030;-77
2022/06/18 10:07:48;;;;;;;1999.90;999.90;;;34.90;30.20;;;;;;4994672;28;20046;-77
2022/06/18 10:10:25;;;;;;;1999.90;999.90;;;35.20;30.00;;;;;;5009601;28;20030;-78
2022/06/18 10:12:56;;;;;;;1999.90;999.90;;;35.40;28.70;;;;;;4987320;28;20054;-78
2022/06/18 10:15:23;;;;;;;1999.90;999.90;;;35.40;28.90;;;;;;4986038;28;20043;-78
2022/06/18 10:18:04;;;;;;;1999.90;999.90;;;35.30;28.40;;;;;;4979033;28;20030;-77
2022/06/18 10:20:42;;;;;;;1999.90;999.90;;;35.40;29.10;;;;;;4974737;28;20049;-77
2022/06/18 10:23:23;;;;;;;1999.90;999.90;;;35.50;28.40;;;;;;4991258;28;20034;-77
2022/06/18 10:26:17;;;;;;;1999.90;999.90;;;35.50;28.20;;;;;;4971330;28;20026;-77
2022/06/18 10:28:46;;;;;;;1999.90;999.90;;;35.60;28.50;;;;;;4991813;28;20038;-77
2022/06/18 10:31:53;;;;;;;1999.90;999.90;;;35.50;28.40;;;;;;4990873;28;20030;-77
2022/06/18 10:34:32;;;;;;;1999.90;999.90;;;35.50;28.40;;;;;;4949892;29;20587;-77
2022/06/18 10:37:17;;;;;;;1999.90;999.90;;;35.70;28.40;;;;;;4952866;28;20051;-77
2022/06/18 10:40:02;;;;;;;1999.90;999.90;;;35.90;28.50;;;;;;4952493;28;20050;-77
2022/06/18 10:42:38;;;;;;;1999.90;999.90;;;36.20;28.00;;;;;;4952226;28;20039;-77
2022/06/18 10:45:16;;;;;;;1999.90;999.90;;;36.20;28.00;;;;;;4949611;28;20035;-76
2022/06/18 10:47:45;;;;;;;1999.90;999.90;;;36.30;28.00;;;;;;4932244;29;20040;-77
2022/06/18 10:50:13;;;;;;;1999.90;999.90;;;36.40;27.80;;;;;;4917446;29;20420;-77
2022/06/18 10:52:39;;;;;;;1999.90;999.90;;;36.50;27.90;;;;;;4920533;29;20039;-77
2022/06/18 10:55:21;;;;;;;1999.90;999.90;;;36.60;27.60;;;;;;4932151;29;20473;-77
2022/06/18 10:57:48;;;;;;;1999.90;999.90;;;36.80;27.50;;;;;;4931896;29;20048;-77
2022/06/18 11:00:25;;;;;;;1999.90;999.90;;;36.90;27.50;;;;;;4931463;29;20058;-77
2022/06/18 11:02:59;;;;;;;1999.90;999.90;;;37.00;26.90;;;;;;4927919;29;20044;-77
2022/06/18 11:05:38;;;;;;;1999.90;999.90;;;37.30;27.10;;;;;;4917382;28;20054;-77
2022/06/18 11:08:17;;;;;;;1999.90;999.90;;;37.50;26.90;;;;;;4915733;29;20040;-77
2022/06/18 11:10:44;;;;;;;1999.90;999.90;;;37.50;27.00;;;;;;4961386;28;20046;-77
2022/06/18 11:13:28;;;;;;;1999.90;999.90;;;37.60;25.90;;;;;;4973745;28;20058;-78
2022/06/18 11:16:22;;;;;;;1999.90;999.90;;;37.80;25.50;;;;;;4965719;28;20034;-77
2022/06/18 11:18:54;;;;;;;1999.90;999.90;;;37.80;25.90;;;;;;4988908;28;20043;-77
2022/06/18 11:21:39;;;;;;;1999.90;999.90;;;37.80;26.00;;;;;;4973114;28;20027;-77
2022/06/18 11:24:11;;;;;;;1999.90;999.90;;;37.90;25.70;;;;;;4989520;28;20486;-77
2022/06/18 11:26:59;;;;;;;1999.90;999.90;;;38.10;25.20;;;;;;4989873;28;20057;-77
2022/06/18 11:29:42;;;;;;;1999.90;999.90;;;38.30;25.00;;;;;;4974515;28;20030;-77
2022/06/18 11:32:17;;;;;;;1999.90;999.90;;;38.50;24.80;;;;;;5001216;28;20042;-77
2022/06/18 11:34:47;;;;;;;1999.90;999.90;;;38.50;24.00;;;;;;4979179;28;20034;-77
2022/06/18 11:37:32;;;;;;;1999.90;999.90;;;38.30;24.40;;;;;;4957834;28;20043;-78
2022/06/18 11:40:07;;;;;;;1999.90;999.90;;;38.30;25.10;;;;;;4985501;28;20022;-77
2022/06/18 11:42:52;;;;;;;1999.90;999.90;;;38.20;25.60;;;;;;4989310;28;20034;-77
2022/06/18 11:45:40;;;;;;;1999.90;999.90;;;38.30;25.70;;;;;;4974175;28;20034;-77
2022/06/18 11:48:21;;;;;;;1999.90;999.90;;;38.10;25.60;;;;;;4985964;28;20045;-77
2022/06/18 11:51:07;;;;;;;1999.90;999.90;;;38.10;26.00;;;;;;4986311;28;20026;-77
2022/06/18 11:53:54;;;;;;;1999.90;999.90;;;38.10;25.70;;;;;;4987146;28;20035;-77
2022/06/18 11:56:40;;;;;;;1999.90;999.90;;;38.00;25.30;;;;;;4972939;28;20094;-77
2022/06/18 11:59:49;;;;;;;1999.90;999.90;;;38.00;25.70;;;;;;4985346;28;20046;-77
2022/06/18 12:02:28;;;;;;;1999.90;999.90;;;38.10;25.70;;;;;;4986815;28;20034;-77
2022/06/18 12:05:03;;;;;;;1999.90;999.90;;;38.20;25.50;;;;;;4985673;28;20038;-77
2022/06/18 12:07:46;;;;;;;1999.90;999.90;;;38.10;25.50;;;;;;5001653;28;20393;-77
2022/06/18 12:10:13;;;;;;;1999.90;999.90;;;38.10;25.30;;;;;;5003602;28;20045;-77
2022/06/18 12:13:03;;;;;;;1999.90;999.90;;;38.10;25.30;;;;;;4986165;28;20050;-77
2022/06/18 12:15:38;;;;;;;;;;;38.20;25.00;;;;;;4989581;28;20110;-77
2022/06/18 12:18:31;;;;;;;1999.90;999.90;;;38.30;25.10;;;;;;5009948;28;20282;-77
2022/06/18 12:21:18;;;;;;;1999.90;999.90;;;38.20;24.70;;;;;;4988195;28;20025;-77
2022/06/18 12:24:15;;;;;;;1999.90;999.90;;;38.40;24.70;;;;;;5012185;28;20479;-77
2022/06/18 12:26:51;;;;;;;1999.90;999.90;;;38.50;24.60;;;;;;5009036;28;20041;-77
2022/06/18 12:29:42;;;;;;;1999.90;999.90;;;38.50;24.30;;;;;;5011326;28;20029;-77
2022/06/18 12:32:17;;;;;;;1999.90;999.90;;;38.30;24.20;;;;;;4995435;28;20037;-77
2022/06/18 12:34:49;;;;;;;1999.90;999.90;;;38.30;24.70;;;;;;5008483;28;20050;-77
2022/06/18 12:37:25;;;;;;;1999.90;999.90;;;38.30;24.10;;;;;;5009993;28;20045;-77
2022/06/18 12:40:14;;;;;;;1999.90;999.90;;;38.20;24.30;;;;;;4976008;28;20042;-77
2022/06/18 12:43:00;;;;;;;1999.90;999.90;;;38.30;24.50;;;;;;4995227;28;20033;-77
2022/06/18 12:45:32;;;;;;;1999.90;999.90;;;38.40;24.10;;;;;;4991948;28;20060;-77
2022/06/18 12:48:28;;;;;;;1999.90;999.90;;;38.50;24.40;;;;;;4979204;28;20049;-77
2022/06/18 12:51:04;;;;;;;1999.90;999.90;;;38.50;24.40;;;;;;4975891;28;20060;-77
2022/06/18 12:53:49;;;;;;;1999.90;999.90;;;38.50;24.10;;;;;;4992408;28;20037;-77
2022/06/18 12:56:54;;;;;;;1999.90;999.90;;;38.60;24.40;;;;;;4996234;28;20026;-77
2022/06/18 13:00:05;;;;;;;1999.90;999.90;;;38.70;24.20;;;;;;4995398;28;20053;-77